Time;durP1;ratioP1;P1;durP2;ratioP2;P2;SDS_P1;SDS_P2;PMS_P1;PMS_P2;Temp;Humidity;BMP_temperature;BMP_pressure;BME280_temperature;BME280_humidity;BME280_pressure;Samples;Min_cycle;Max_cycle;Signal;HPM_P1;HPM_P2
2023/10/14 00:08:52;;;;;;;9.73;2.87;;;;;;;18.78;52.02;99285.75;31220550;28;97084;-65
2023/10/14 00:23:56;;;;;;;10.27;3.30;;;;;;;18.90;52.76;99269.53;31218811;28;96815;-65
2023/10/14 00:38:57;;;;;;;11.67;3.53;;;;;;;19.01;52.85;99238.09;31217448;28;97884;-66
2023/10/14 00:54:10;;;;;;;9.23;2.93;;;;;;;18.88;52.86;99245.50;31216413;27;97492;-65
2023/10/14 01:09:11;;;;;;;16.37;4.37;;;;;;;18.50;53.36;99201.19;31215227;27;96997;-65
2023/10/14 01:24:17;;;;;;;6.97;3.70;;;;;;;18.04;54.39;99171.66;31213466;27;99241;-63
2023/10/14 01:39:21;;;;;;;8.33;3.37;;;;;;;17.78;54.92;99140.72;31211556;27;96667;-63
2023/10/14 01:54:22;;;;;;;10.23;3.57;;;;;;;17.44;55.18;99116.44;31211757;27;97054;-63
2023/10/14 02:09:29;;;;;;;;;;;;;;;17.35;55.62;99126.78;31209947;27;97207;-63
2023/10/14 02:24:30;;;;;;;11.67;3.43;;;;;;;17.08;56.25;99094.25;31210235;28;96788;-64
2023/10/14 02:39:30;;;;;;;8.55;3.60;;;;;;;16.77;56.99;99095.47;31207528;28;97234;-63
2023/10/14 02:54:34;;;;;;;9.98;3.88;;;;;;;16.44;58.55;99072.75;31205701;28;109675;-65
2023/10/14 03:09:34;;;;;;;10.03;4.13;;;;;;;16.39;59.74;99060.03;31206486;27;96907;-66
2023/10/14 03:24:38;;;;;;;12.65;4.60;;;;;;;16.46;60.99;99068.78;31224570;27;96729;-63
2023/10/14 03:39:46;;;;;;;9.10;4.10;;;;;;;16.68;61.13;99038.56;31221892;28;98582;-65
2023/10/14 03:54:46;;;;;;;9.60;4.30;;;;;;;16.85;61.19;99058.28;31220405;27;96722;-65
2023/10/14 04:09:56;;;;;;;13.80;4.63;;;;;;;16.67;61.76;99026.19;31218397;28;116537;-63
2023/10/14 04:55:43;;;;;;;6.77;3.80;;;;;;;17.28;60.20;98996.09;31210029;28;97800;-63
2023/10/14 05:10:44;;;;;;;7.33;2.80;;;;;;;17.80;57.75;98971.59;31212643;28;97015;-65
2023/10/14 05:25:57;;;;;;;7.60;3.00;;;;;;;18.52;54.79;98991.44;31210240;27;97423;-63
2023/10/14 05:40:58;;;;;;;6.23;3.03;;;;;;;19.02;52.40;99007.63;31208491;27;96839;-63
2023/10/14 05:56:14;;;;;;;12.70;3.27;;;;;;;19.18;51.67;99022.91;31206021;28;97431;-63
2023/10/14 06:11:16;;;;;;;8.50;3.27;;;;;;;19.08;51.91;99037.13;31205006;28;97249;-65
2023/10/14 06:26:17;;;;;;;10.43;3.03;;;;;;;19.15;50.69;99053.13;31202340;28;97526;-64
2023/10/14 06:41:17;;;;;;;6.88;2.95;;;;;;;19.20;49.61;99052.34;31201301;28;97122;-63
2023/10/14 06:56:20;;;;;;;7.75;3.33;;;;;;;19.18;49.05;99044.50;31219593;27;96732;-65
2023/10/14 07:11:21;;;;;;;9.43;3.10;;;;;;;19.16;48.84;99035.84;31224286;27;97500;-63
2023/10/14 07:26:22;;;;;;;10.05;3.10;;;;;;;19.10;49.33;99053.06;31223848;27;97256;-63
2023/10/14 07:41:23;;;;;;;8.43;3.23;;;;;;;19.55;49.02;99035.66;31221398;27;96714;-63
2023/10/14 07:56:24;;;;;;;10.50;3.73;;;;;;;20.18;48.38;99021.50;31217595;27;97117;-61
2023/10/14 08:11:24;;;;;;;13.27;3.75;;;;;;;22.59;45.72;99017.34;31216281;28;111575;-63
2023/10/14 08:26:26;;;;;;;7.87;3.33;;;;;;;23.99;41.78;99012.59;31215301;28;105127;-63
2023/10/14 08:41:26;;;;;;;7.87;3.27;;;;;;;25.90;40.33;99009.91;31211768;28;97217;-63
2023/10/14 08:56:27;;;;;;;5.43;3.10;;;;;;;26.90;35.51;99016.69;31212681;27;97133;-63
2023/10/14 09:11:33;;;;;;;8.85;3.10;;;;;;;25.40;36.57;99036.97;31211365;27;96795;-63
2023/10/14 09:26:38;;;;;;;6.93;3.03;;;;;;;24.75;37.96;99050.09;31210984;27;97014;-62
2023/10/14 09:41:39;;;;;;;5.43;3.13;;;;;;;29.77;31.03;99035.59;31208531;27;96742;-63
2023/10/14 09:56:42;;;;;;;10.87;3.23;;;;;;;32.79;28.19;99018.34;31207446;27;96827;-62
2023/10/14 10:11:42;;;;;;;10.77;5.70;;;;;;;37.55;22.35;99022.56;31205286;28;96949;-62
2023/10/14 10:27:18;;;;;;;9.00;3.10;;;;;;;35.17;22.84;99026.34;31218180;27;97662;-64
2023/10/14 10:42:19;;;;;;;8.00;3.73;;;;;;;27.69;31.77;99025.50;31125738;28;98042;-65
2023/10/14 10:57:20;;;;;;;8.33;3.63;;;;;;;24.21;37.56;99057.53;31223912;27;97329;-64
2023/10/14 11:12:20;;;;;;;9.77;3.28;;;;;;;22.36;41.72;99123.81;31223971;27;97442;-63
2023/10/14 11:27:20;;;;;;;9.80;3.50;;;;;;;21.12;44.97;99181.34;31222777;28;114865;-61
2023/10/14 11:42:21;;;;;;;7.67;2.90;;;;;;;20.08;48.88;99216.09;31221159;27;97210;-62
2023/10/14 11:57:21;;;;;;;3.60;1.93;;;;;;;19.02;53.14;99258.63;31219577;27;97450;-64
2023/10/14 12:12:22;;;;;;;3.30;1.20;;;;;;;17.98;57.19;99287.69;31217879;28;96802;-63
2023/10/14 12:27:25;;;;;;;2.35;1.05;;;;;;;17.10;60.15;99331.63;31215003;28;97009;-65
2023/10/14 12:42:38;;;;;;;1.10;0.57;;;;;;;15.94;61.14;99377.53;31213053;27;97039;-65
2023/10/14 12:57:39;;;;;;;7.23;1.93;;;;;;;15.51;61.21;99363.97;31212071;27;97420;-62
2023/10/14 13:12:39;;;;;;;1.37;0.77;;;;;;;15.00;62.25;99408.78;31212345;27;97617;-62
2023/10/14 13:27:39;;;;;;;3.20;0.90;;;;;;;14.51;63.13;99410.34;31211674;27;97142;-63
2023/10/14 13:42:40;;;;;;;2.72;1.08;;;;;;;14.48;63.81;99422.31;31208709;28;116142;-64
2023/10/14 13:57:40;;;;;;;2.63;0.80;;;;;;;14.54;64.76;99420.63;31204653;27;103015;-62
2023/10/14 14:12:42;;;;;;;4.95;1.42;;;;;;;18.76;64.17;99425.50;31204500;28;114202;-63
2023/10/14 14:27:45;;;;;;;2.87;1.00;;;;;;;19.11;56.24;99452.31;31204482;28;97203;-64
2023/10/14 14:42:45;;;;;;;5.10;1.50;;;;;;;16.81;58.78;99439.03;31201358;28;97133;-61
2023/10/14 14:57:47;;;;;;;4.10;0.95;;;;;;;15.43;60.86;99482.31;31202234;28;97743;-62
2023/10/14 15:12:52;;;;;;;3.60;1.30;;;;;;;14.55;63.04;99498.13;31216515;27;97305;-63
2023/10/14 15:27:54;;;;;;;2.87;0.83;;;;;;;14.10;64.20;99494.59;31224026;28;96991;-64
2023/10/14 15:42:54;;;;;;;3.13;1.07;;;;;;;13.85;65.12;99509.47;31219841;27;97098;-65
2023/10/14 15:57:56;;;;;;;2.90;1.40;;;;;;;13.65;65.93;99492.63;31232677;27;96870;-62
2023/10/14 16:13:00;;;;;;;4.57;1.47;;;;;;;13.53;66.06;99516.50;31216708;28;97545;-64
2023/10/14 16:28:01;;;;;;;4.63;1.40;;;;;;;13.39;65.91;99509.50;31213989;27;96761;-64
2023/10/14 16:43:03;;;;;;;6.03;1.37;;;;;;;13.30;66.28;99535.59;31212462;28;97729;-65
2023/10/14 16:58:05;;;;;;;5.73;1.23;;;;;;;13.15;66.56;99575.88;31214126;27;96785;-62
2023/10/14 17:13:06;;;;;;;4.03;1.73;;;;;;;13.10;66.93;99600.56;31213429;28;97018;-64
2023/10/14 17:28:06;;;;;;;4.88;2.00;;;;;;;13.00;66.85;99603.63;31211135;27;97016;-64
2023/10/14 17:43:09;;;;;;;4.05;1.60;;;;;;;12.98;66.33;99610.19;31207139;27;96684;-64
2023/10/14 17:58:10;;;;;;;7.63;1.97;;;;;;;12.90;65.61;99599.69;31204215;27;97524;-65
2023/10/14 18:13:14;;;;;;;5.70;1.90;;;;;;;12.76;65.26;99618.34;31204415;28;97038;-63
2023/10/14 18:28:15;;;;;;;6.20;1.53;;;;;;;12.62;65.01;99648.69;31203350;28;96788;-62
2023/10/14 18:43:15;;;;;;;7.53;2.13;;;;;;;12.48;64.70;99648.63;31210328;27;97134;-63
2023/10/14 18:58:16;;;;;;;9.05;2.30;;;;;;;12.36;65.00;99667.00;31224498;27;97186;-62
2023/10/14 19:13:16;;;;;;;5.38;1.98;;;;;;;12.25;64.57;99680.09;31223885;27;97224;-61
2023/10/14 19:28:21;;;;;;;7.75;2.53;;;;;;;11.90;64.73;99691.47;31222455;27;97072;-63
2023/10/14 19:43:21;;;;;;;6.87;2.07;;;;;;;11.70;64.43;99688.63;31220299;27;97341;-63
2023/10/14 19:58:21;;;;;;;6.63;1.73;;;;;;;11.41;64.13;99706.34;31218237;27;100375;-65
2023/10/14 20:13:22;;;;;;;3.58;1.42;;;;;;;11.08;64.71;99711.28;31219075;28;97040;-61
2023/10/14 20:28:22;;;;;;;5.03;2.20;;;;;;;10.80;65.13;99736.75;31215335;28;96710;-62
2023/10/14 20:43:23;;;;;;;13.00;2.55;;;;;;;10.53;65.26;99756.00;31216168;28;97209;-61
2023/10/14 20:58:23;;;;;;;6.80;2.00;;;;;;;10.28;65.65;99786.28;31214722;28;97085;-63
2023/10/14 21:13:25;;;;;;;7.43;1.77;;;;;;;10.15;65.31;99796.69;31212917;27;107625;-64
2023/10/14 21:28:26;;;;;;;7.80;1.87;;;;;;;10.01;66.24;99800.94;31213610;28;96899;-61
2023/10/14 21:43:26;;;;;;;5.45;2.28;;;;;;;9.81;65.67;99817.38;31212214;28;96844;-63
2023/10/14 21:58:27;;;;;;;3.88;1.58;;;;;;;9.66;65.89;99816.44;31210782;27;112389;-62
2023/10/14 22:13:27;;;;;;;5.80;2.20;;;;;;;9.48;66.14;99812.16;31209056;28;97075;-63
2023/10/14 22:28:28;;;;;;;4.78;1.70;;;;;;;9.34;66.44;99817.41;31208090;28;97294;-67
2023/10/14 22:43:28;;;;;;;11.10;2.50;;;;;;;9.10;66.67;99822.63;31208789;28;98787;-64
2023/10/14 22:58:28;;;;;;;9.77;1.98;;;;;;;9.01;67.08;99836.91;31206799;28;96983;-62
2023/10/14 23:13:30;;;;;;;6.38;2.15;;;;;;;8.94;67.69;99849.22;31205797;28;97099;-62
2023/10/14 23:28:32;;;;;;;5.70;1.90;;;;;;;8.73;68.66;99858.50;31210253;27;97075;-62
2023/10/14 23:43:33;;;;;;;7.20;2.40;;;;;;;8.67;68.47;99869.81;31224455;27;97202;-63
2023/10/14 23:58:34;;;;;;;7.00;2.07;;;;;;;8.60;68.70;99877.59;31222032;27;97446;-62
